sensor_id;sensor_type;location;lat;lon;timestamp;P1;durP1;ratioP1;P2;durP2;ratioP2
20988;SDS011;10653;47.052;15.410;2023-11-19T00:00:27;6.95;;;6.25;;
20988;SDS011;10653;47.052;15.410;2023-11-19T00:02:53;8.02;;;6.82;;
20988;SDS011;10653;47.052;15.410;2023-11-19T00:05:19;6.60;;;6.00;;
20988;SDS011;10653;47.052;15.410;2023-11-19T00:07:45;7.83;;;6.53;;
20988;SDS011;10653;47.052;15.410;2023-11-19T00:10:12;7.43;;;6.72;;
20988;SDS011;10653;47.052;15.410;2023-11-19T00:12:39;6.50;;;5.95;;
20988;SDS011;10653;47.052;15.410;2023-11-19T00:15:06;8.05;;;7.05;;
20988;SDS011;10653;47.052;15.410;2023-11-19T00:17:36;7.73;;;6.73;;
20988;SDS011;10653;47.052;15.410;2023-11-19T00:20:03;7.25;;;6.40;;
20988;SDS011;10653;47.052;15.410;2023-11-19T00:22:30;7.25;;;6.55;;
20988;SDS011;10653;47.052;15.410;2023-11-19T00:24:57;7.55;;;6.63;;
20988;SDS011;10653;47.052;15.410;2023-11-19T00:27:24;7.15;;;6.45;;
20988;SDS011;10653;47.052;15.410;2023-11-19T00:29:51;8.43;;;6.82;;
20988;SDS011;10653;47.052;15.410;2023-11-19T00:32:17;7.30;;;6.70;;
20988;SDS011;10653;47.052;15.410;2023-11-19T00:34:44;6.78;;;5.97;;
20988;SDS011;10653;47.052;15.410;2023-11-19T00:37:10;7.38;;;6.63;;
20988;SDS011;10653;47.052;15.410;2023-11-19T00:39:36;7.05;;;6.38;;
20988;SDS011;10653;47.052;15.410;2023-11-19T00:42:02;6.88;;;6.15;;
20988;SDS011;10653;47.052;15.410;2023-11-19T00:44:28;8.18;;;6.30;;
20988;SDS011;10653;47.052;15.410;2023-11-19T00:46:54;7.60;;;6.90;;
20988;SDS011;10653;47.052;15.410;2023-11-19T00:49:20;7.30;;;6.53;;
20988;SDS011;10653;47.052;15.410;2023-11-19T00:51:46;7.00;;;6.30;;
20988;SDS011;10653;47.052;15.410;2023-11-19T00:54:12;7.30;;;6.60;;
20988;SDS011;10653;47.052;15.410;2023-11-19T00:56:38;9.03;;;7.37;;
20988;SDS011;10653;47.052;15.410;2023-11-19T00:59:04;6.63;;;6.03;;
20988;SDS011;10653;47.052;15.410;2023-11-19T01:01:30;8.30;;;7.50;;
20988;SDS011;10653;47.052;15.410;2023-11-19T01:03:57;7.45;;;6.75;;
20988;SDS011;10653;47.052;15.410;2023-11-19T01:06:26;7.80;;;7.10;;
20988;SDS011;10653;47.052;15.410;2023-11-19T01:08:53;6.68;;;6.07;;
20988;SDS011;10653;47.052;15.410;2023-11-19T01:11:20;5.63;;;5.13;;
20988;SDS011;10653;47.052;15.410;2023-11-19T01:13:47;6.80;;;6.20;;
20988;SDS011;10653;47.052;15.410;2023-11-19T01:16:13;7.53;;;6.22;;
20988;SDS011;10653;47.052;15.410;2023-11-19T01:18:39;7.10;;;6.23;;
20988;SDS011;10653;47.052;15.410;2023-11-19T01:21:05;6.67;;;6.03;;
20988;SDS011;10653;47.052;15.410;2023-11-19T01:23:31;6.80;;;6.22;;
20988;SDS011;10653;47.052;15.410;2023-11-19T01:26:00;6.55;;;5.95;;
20988;SDS011;10653;47.052;15.410;2023-11-19T01:28:26;6.97;;;6.32;;
20988;SDS011;10653;47.052;15.410;2023-11-19T01:30:52;8.67;;;6.93;;
20988;SDS011;10653;47.052;15.410;2023-11-19T01:33:18;6.90;;;6.30;;
20988;SDS011;10653;47.052;15.410;2023-11-19T01:35:45;6.20;;;5.57;;
20988;SDS011;10653;47.052;15.410;2023-11-19T01:38:11;7.65;;;6.93;;
20988;SDS011;10653;47.052;15.410;2023-11-19T01:40:37;6.93;;;6.23;;
20988;SDS011;10653;47.052;15.410;2023-11-19T01:43:03;8.13;;;7.33;;
20988;SDS011;10653;47.052;15.410;2023-11-19T01:45:29;7.75;;;6.93;;
20988;SDS011;10653;47.052;15.410;2023-11-19T01:47:56;8.70;;;6.13;;
20988;SDS011;10653;47.052;15.410;2023-11-19T01:50:23;7.03;;;5.95;;
20988;SDS011;10653;47.052;15.410;2023-11-19T01:52:50;6.60;;;6.00;;
20988;SDS011;10653;47.052;15.410;2023-11-19T01:55:16;5.72;;;5.22;;
20988;SDS011;10653;47.052;15.410;2023-11-19T01:57:42;7.32;;;6.63;;
20988;SDS011;10653;47.052;15.410;2023-11-19T02:00:08;6.00;;;5.40;;
20988;SDS011;10653;47.052;15.410;2023-11-19T02:02:36;7.32;;;6.72;;
20988;SDS011;10653;47.052;15.410;2023-11-19T02:05:04;7.27;;;6.47;;
20988;SDS011;10653;47.052;15.410;2023-11-19T02:07:30;6.68;;;6.07;;
20988;SDS011;10653;47.052;15.410;2023-11-19T02:09:57;7.30;;;6.60;;
20988;SDS011;10653;47.052;15.410;2023-11-19T02:12:28;7.10;;;6.50;;
20988;SDS011;10653;47.052;15.410;2023-11-19T02:14:54;6.28;;;5.78;;
20988;SDS011;10653;47.052;15.410;2023-11-19T02:17:30;6.88;;;6.18;;
20988;SDS011;10653;47.052;15.410;2023-11-19T02:19:56;7.90;;;6.10;;
20988;SDS011;10653;47.052;15.410;2023-11-19T02:22:23;7.35;;;6.70;;
20988;SDS011;10653;47.052;15.410;2023-11-19T02:24:51;6.80;;;6.20;;
20988;SDS011;10653;47.052;15.410;2023-11-19T02:27:22;6.95;;;6.25;;
20988;SDS011;10653;47.052;15.410;2023-11-19T02:29:50;6.75;;;6.20;;
20988;SDS011;10653;47.052;15.410;2023-11-19T02:32:16;7.10;;;6.40;;
20988;SDS011;10653;47.052;15.410;2023-11-19T02:34:42;6.50;;;5.80;;
20988;SDS011;10653;47.052;15.410;2023-11-19T02:37:08;7.30;;;6.68;;
20988;SDS011;10653;47.052;15.410;2023-11-19T02:39:34;6.40;;;5.80;;
20988;SDS011;10653;47.052;15.410;2023-11-19T02:42:01;8.30;;;5.93;;
20988;SDS011;10653;47.052;15.410;2023-11-19T02:44:27;7.03;;;6.32;;
20988;SDS011;10653;47.052;15.410;2023-11-19T02:46:55;8.18;;;6.15;;
20988;SDS011;10653;47.052;15.410;2023-11-19T02:49:24;8.70;;;7.33;;
20988;SDS011;10653;47.052;15.410;2023-11-19T02:51:50;7.50;;;6.70;;
20988;SDS011;10653;47.052;15.410;2023-11-19T02:54:16;7.30;;;6.60;;
20988;SDS011;10653;47.052;15.410;2023-11-19T02:56:42;7.18;;;6.43;;
20988;SDS011;10653;47.052;15.410;2023-11-19T02:59:09;7.18;;;6.47;;
20988;SDS011;10653;47.052;15.410;2023-11-19T03:01:51;11.07;;;6.28;;
20988;SDS011;10653;47.052;15.410;2023-11-19T03:04:18;7.95;;;6.57;;
20988;SDS011;10653;47.052;15.410;2023-11-19T03:06:45;6.97;;;6.28;;
20988;SDS011;10653;47.052;15.410;2023-11-19T03:09:11;7.07;;;6.25;;
20988;SDS011;10653;47.052;15.410;2023-11-19T03:11:37;7.20;;;6.50;;
20988;SDS011;10653;47.052;15.410;2023-11-19T03:14:04;7.25;;;6.45;;
20988;SDS011;10653;47.052;15.410;2023-11-19T03:16:30;6.97;;;6.37;;
20988;SDS011;10653;47.052;15.410;2023-11-19T03:18:57;7.18;;;6.47;;
20988;SDS011;10653;47.052;15.410;2023-11-19T03:21:28;8.00;;;7.20;;
20988;SDS011;10653;47.052;15.410;2023-11-19T03:23:55;7.00;;;6.35;;
20988;SDS011;10653;47.052;15.410;2023-11-19T03:26:21;8.30;;;7.45;;
20988;SDS011;10653;47.052;15.410;2023-11-19T03:28:47;7.63;;;6.93;;
20988;SDS011;10653;47.052;15.410;2023-11-19T03:31:13;6.90;;;6.30;;
20988;SDS011;10653;47.052;15.410;2023-11-19T03:33:39;7.37;;;6.67;;
20988;SDS011;10653;47.052;15.410;2023-11-19T03:36:05;8.15;;;7.35;;
20988;SDS011;10653;47.052;15.410;2023-11-19T03:38:32;7.30;;;6.60;;
20988;SDS011;10653;47.052;15.410;2023-11-19T03:40:58;6.93;;;6.33;;
20988;SDS011;10653;47.052;15.410;2023-11-19T03:43:24;7.40;;;6.70;;
20988;SDS011;10653;47.052;15.410;2023-11-19T03:45:50;6.73;;;6.07;;
20988;SDS011;10653;47.052;15.410;2023-11-19T03:48:16;9.93;;;6.80;;
20988;SDS011;10653;47.052;15.410;2023-11-19T03:50:42;7.40;;;6.70;;
20988;SDS011;10653;47.052;15.410;2023-11-19T03:53:08;7.85;;;7.03;;
20988;SDS011;10653;47.052;15.410;2023-11-19T03:55:34;8.57;;;6.77;;
20988;SDS011;10653;47.052;15.410;2023-11-19T03:58:00;7.60;;;6.78;;
20988;SDS011;10653;47.052;15.410;2023-11-19T04:00:26;7.80;;;6.70;;
20988;SDS011;10653;47.052;15.410;2023-11-19T04:02:52;7.60;;;6.88;;
20988;SDS011;10653;47.052;15.410;2023-11-19T04:05:19;7.15;;;6.43;;
20988;SDS011;10653;47.052;15.410;2023-11-19T04:07:45;7.45;;;6.75;;
20988;SDS011;10653;47.052;15.410;2023-11-19T04:10:10;7.47;;;6.77;;
20988;SDS011;10653;47.052;15.410;2023-11-19T04:12:36;6.93;;;6.37;;
20988;SDS011;10653;47.052;15.410;2023-11-19T04:15:03;7.40;;;6.63;;
20988;SDS011;10653;47.052;15.410;2023-11-19T04:17:29;7.47;;;6.78;;
20988;SDS011;10653;47.052;15.410;2023-11-19T04:19:55;7.40;;;6.70;;
20988;SDS011;10653;47.052;15.410;2023-11-19T04:22:21;7.37;;;6.67;;
20988;SDS011;10653;47.052;15.410;2023-11-19T04:24:47;8.50;;;7.70;;
20988;SDS011;10653;47.052;15.410;2023-11-19T04:27:13;6.75;;;6.15;;
20988;SDS011;10653;47.052;15.410;2023-11-19T04:29:39;7.38;;;6.68;;
20988;SDS011;10653;47.052;15.410;2023-11-19T04:32:06;8.80;;;6.90;;
20988;SDS011;10653;47.052;15.410;2023-11-19T04:34:32;7.88;;;7.10;;
20988;SDS011;10653;47.052;15.410;2023-11-19T04:36:58;7.90;;;7.10;;
20988;SDS011;10653;47.052;15.410;2023-11-19T04:39:28;7.90;;;7.15;;
20988;SDS011;10653;47.052;15.410;2023-11-19T04:41:54;7.60;;;6.90;;
20988;SDS011;10653;47.052;15.410;2023-11-19T04:44:20;7.63;;;6.90;;
20988;SDS011;10653;47.052;15.410;2023-11-19T04:46:47;8.07;;;7.30;;
20988;SDS011;10653;47.052;15.410;2023-11-19T04:49:13;7.57;;;6.82;;
20988;SDS011;10653;47.052;15.410;2023-11-19T04:51:40;7.97;;;7.05;;
20988;SDS011;10653;47.052;15.410;2023-11-19T04:54:09;7.25;;;6.55;;
20988;SDS011;10653;47.052;15.410;2023-11-19T04:56:36;6.93;;;6.32;;
20988;SDS011;10653;47.052;15.410;2023-11-19T04:59:02;7.47;;;6.00;;
20988;SDS011;10653;47.052;15.410;2023-11-19T05:01:30;8.40;;;7.60;;
20988;SDS011;10653;47.052;15.410;2023-11-19T05:03:56;7.40;;;6.63;;
20988;SDS011;10653;47.052;15.410;2023-11-19T05:06:26;9.38;;;8.43;;
20988;SDS011;10653;47.052;15.410;2023-11-19T05:08:52;9.27;;;8.38;;
20988;SDS011;10653;47.052;15.410;2023-11-19T05:11:19;7.53;;;6.72;;
20988;SDS011;10653;47.052;15.410;2023-11-19T05:13:45;8.57;;;7.47;;
20988;SDS011;10653;47.052;15.410;2023-11-19T05:16:11;13.38;;;12.07;;
20988;SDS011;10653;47.052;15.410;2023-11-19T05:18:40;16.40;;;12.75;;
20988;SDS011;10653;47.052;15.410;2023-11-19T05:21:07;21.90;;;16.35;;
20988;SDS011;10653;47.052;15.410;2023-11-19T05:23:33;18.75;;;15.13;;
20988;SDS011;10653;47.052;15.410;2023-11-19T05:26:02;14.93;;;12.27;;
20988;SDS011;10653;47.052;15.410;2023-11-19T05:28:29;12.75;;;10.50;;
20988;SDS011;10653;47.052;15.410;2023-11-19T05:30:55;11.32;;;9.95;;
20988;SDS011;10653;47.052;15.410;2023-11-19T05:33:21;13.25;;;11.93;;
20988;SDS011;10653;47.052;15.410;2023-11-19T05:35:47;11.50;;;9.18;;
20988;SDS011;10653;47.052;15.410;2023-11-19T05:38:13;7.45;;;6.72;;
20988;SDS011;10653;47.052;15.410;2023-11-19T05:40:39;7.32;;;6.65;;
20988;SDS011;10653;47.052;15.410;2023-11-19T05:43:05;10.52;;;7.75;;
20988;SDS011;10653;47.052;15.410;2023-11-19T05:45:31;7.63;;;6.72;;
20988;SDS011;10653;47.052;15.410;2023-11-19T05:47:57;7.55;;;6.88;;
20988;SDS011;10653;47.052;15.410;2023-11-19T05:50:23;8.90;;;8.10;;
20988;SDS011;10653;47.052;15.410;2023-11-19T05:52:50;8.57;;;7.73;;
20988;SDS011;10653;47.052;15.410;2023-11-19T05:55:18;10.65;;;8.13;;
20988;SDS011;10653;47.052;15.410;2023-11-19T05:57:44;11.48;;;10.18;;
20988;SDS011;10653;47.052;15.410;2023-11-19T06:00:10;10.98;;;9.98;;
20988;SDS011;10653;47.052;15.410;2023-11-19T06:02:38;9.57;;;8.57;;
20988;SDS011;10653;47.052;15.410;2023-11-19T06:05:04;8.82;;;8.02;;
20988;SDS011;10653;47.052;15.410;2023-11-19T06:07:32;9.00;;;8.10;;
20988;SDS011;10653;47.052;15.410;2023-11-19T06:09:58;9.55;;;7.85;;
20988;SDS011;10653;47.052;15.410;2023-11-19T06:12:24;9.40;;;8.45;;
20988;SDS011;10653;47.052;15.410;2023-11-19T06:14:52;9.90;;;8.90;;
20988;SDS011;10653;47.052;15.410;2023-11-19T06:17:18;9.97;;;8.97;;
20988;SDS011;10653;47.052;15.410;2023-11-19T06:19:44;10.50;;;9.40;;
20988;SDS011;10653;47.052;15.410;2023-11-19T06:22:10;25.20;;;23.00;;
20988;SDS011;10653;47.052;15.410;2023-11-19T06:24:36;19.55;;;17.85;;
20988;SDS011;10653;47.052;15.410;2023-11-19T06:27:02;19.63;;;17.97;;
20988;SDS011;10653;47.052;15.410;2023-11-19T06:29:29;17.17;;;15.25;;
20988;SDS011;10653;47.052;15.410;2023-11-19T06:31:55;12.20;;;11.00;;
20988;SDS011;10653;47.052;15.410;2023-11-19T06:34:22;9.10;;;8.30;;
20988;SDS011;10653;47.052;15.410;2023-11-19T06:36:48;9.18;;;8.27;;
20988;SDS011;10653;47.052;15.410;2023-11-19T06:39:14;9.80;;;8.57;;
20988;SDS011;10653;47.052;15.410;2023-11-19T06:41:44;8.53;;;7.73;;
20988;SDS011;10653;47.052;15.410;2023-11-19T06:44:10;8.77;;;7.88;;
20988;SDS011;10653;47.052;15.410;2023-11-19T06:46:36;8.13;;;7.40;;
20988;SDS011;10653;47.052;15.410;2023-11-19T06:49:02;8.07;;;7.27;;
20988;SDS011;10653;47.052;15.410;2023-11-19T06:51:28;8.67;;;7.87;;
20988;SDS011;10653;47.052;15.410;2023-11-19T06:53:54;8.82;;;7.47;;
20988;SDS011;10653;47.052;15.410;2023-11-19T06:56:21;8.45;;;7.57;;
20988;SDS011;10653;47.052;15.410;2023-11-19T06:58:47;8.57;;;7.78;;
20988;SDS011;10653;47.052;15.410;2023-11-19T07:01:14;7.55;;;6.85;;
20988;SDS011;10653;47.052;15.410;2023-11-19T07:03:40;8.35;;;7.55;;
20988;SDS011;10653;47.052;15.410;2023-11-19T07:06:06;9.70;;;8.00;;
20988;SDS011;10653;47.052;15.410;2023-11-19T07:08:33;9.13;;;8.23;;
20988;SDS011;10653;47.052;15.410;2023-11-19T07:10:59;8.82;;;7.93;;
20988;SDS011;10653;47.052;15.410;2023-11-19T07:13:25;7.78;;;7.07;;
20988;SDS011;10653;47.052;15.410;2023-11-19T07:15:52;7.50;;;6.80;;
20988;SDS011;10653;47.052;15.410;2023-11-19T07:18:18;9.27;;;8.10;;
20988;SDS011;10653;47.052;15.410;2023-11-19T07:20:47;7.93;;;7.20;;
20988;SDS011;10653;47.052;15.410;2023-11-19T07:23:13;9.48;;;8.57;;
20988;SDS011;10653;47.052;15.410;2023-11-19T07:25:42;9.25;;;8.45;;
20988;SDS011;10653;47.052;15.410;2023-11-19T07:28:09;8.05;;;7.35;;
20988;SDS011;10653;47.052;15.410;2023-11-19T07:30:35;9.73;;;8.67;;
20988;SDS011;10653;47.052;15.410;2023-11-19T07:33:01;10.73;;;8.20;;
20988;SDS011;10653;47.052;15.410;2023-11-19T07:35:29;8.63;;;7.93;;
20988;SDS011;10653;47.052;15.410;2023-11-19T07:37:56;8.45;;;7.65;;
20988;SDS011;10653;47.052;15.410;2023-11-19T07:40:22;11.05;;;9.13;;
20988;SDS011;10653;47.052;15.410;2023-11-19T07:42:49;8.90;;;8.02;;
20988;SDS011;10653;47.052;15.410;2023-11-19T07:45:15;8.70;;;7.90;;
20988;SDS011;10653;47.052;15.410;2023-11-19T07:47:41;10.20;;;8.45;;
20988;SDS011;10653;47.052;15.410;2023-11-19T07:50:09;10.88;;;9.18;;
20988;SDS011;10653;47.052;15.410;2023-11-19T07:52:36;9.90;;;8.70;;
20988;SDS011;10653;47.052;15.410;2023-11-19T07:55:02;11.60;;;10.50;;
20988;SDS011;10653;47.052;15.410;2023-11-19T07:57:30;11.05;;;9.95;;
20988;SDS011;10653;47.052;15.410;2023-11-19T07:59:59;11.30;;;9.00;;
20988;SDS011;10653;47.052;15.410;2023-11-19T08:02:26;10.82;;;9.55;;
20988;SDS011;10653;47.052;15.410;2023-11-19T08:04:53;11.38;;;10.18;;
20988;SDS011;10653;47.052;15.410;2023-11-19T08:07:20;10.40;;;9.25;;
20988;SDS011;10653;47.052;15.410;2023-11-19T08:09:47;10.98;;;9.90;;
20988;SDS011;10653;47.052;15.410;2023-11-19T08:12:13;10.23;;;9.07;;
20988;SDS011;10653;47.052;15.410;2023-11-19T08:14:42;12.25;;;10.50;;
20988;SDS011;10653;47.052;15.410;2023-11-19T08:17:09;11.43;;;9.75;;
20988;SDS011;10653;47.052;15.410;2023-11-19T08:19:35;9.20;;;8.25;;
20988;SDS011;10653;47.052;15.410;2023-11-19T08:22:01;9.20;;;8.13;;
20988;SDS011;10653;47.052;15.410;2023-11-19T08:24:27;10.02;;;8.93;;
20988;SDS011;10653;47.052;15.410;2023-11-19T08:26:53;9.20;;;8.30;;
20988;SDS011;10653;47.052;15.410;2023-11-19T08:29:19;9.40;;;8.50;;
20988;SDS011;10653;47.052;15.410;2023-11-19T08:31:46;9.75;;;8.85;;
20988;SDS011;10653;47.052;15.410;2023-11-19T08:34:12;9.40;;;8.52;;
20988;SDS011;10653;47.052;15.410;2023-11-19T08:36:38;8.90;;;8.10;;
20988;SDS011;10653;47.052;15.410;2023-11-19T08:39:04;9.37;;;8.23;;
20988;SDS011;10653;47.052;15.410;2023-11-19T08:41:30;9.43;;;8.53;;
20988;SDS011;10653;47.052;15.410;2023-11-19T08:43:56;9.07;;;8.23;;
20988;SDS011;10653;47.052;15.410;2023-11-19T08:46:22;8.87;;;8.07;;
20988;SDS011;10653;47.052;15.410;2023-11-19T08:48:48;9.60;;;8.70;;
20988;SDS011;10653;47.052;15.410;2023-11-19T08:51:14;8.87;;;8.07;;
20988;SDS011;10653;47.052;15.410;2023-11-19T08:53:40;9.07;;;8.17;;
20988;SDS011;10653;47.052;15.410;2023-11-19T08:56:06;8.93;;;8.13;;
20988;SDS011;10653;47.052;15.410;2023-11-19T08:58:32;8.93;;;8.10;;
20988;SDS011;10653;47.052;15.410;2023-11-19T09:00:59;8.67;;;7.97;;
20988;SDS011;10653;47.052;15.410;2023-11-19T09:03:25;9.30;;;8.50;;
20988;SDS011;10653;47.052;15.410;2023-11-19T09:05:51;9.37;;;8.33;;
20988;SDS011;10653;47.052;15.410;2023-11-19T09:08:17;9.10;;;7.60;;
20988;SDS011;10653;47.052;15.410;2023-11-19T09:10:43;8.27;;;7.57;;
20988;SDS011;10653;47.052;15.410;2023-11-19T09:13:09;9.30;;;8.40;;
20988;SDS011;10653;47.052;15.410;2023-11-19T09:15:35;9.13;;;8.30;;
20988;SDS011;10653;47.052;15.410;2023-11-19T09:18:01;9.87;;;8.90;;
20988;SDS011;10653;47.052;15.410;2023-11-19T09:20:27;12.17;;;10.97;;
20988;SDS011;10653;47.052;15.410;2023-11-19T09:22:57;8.93;;;8.10;;
20988;SDS011;10653;47.052;15.410;2023-11-19T09:25:23;8.60;;;7.80;;
20988;SDS011;10653;47.052;15.410;2023-11-19T09:27:49;8.17;;;7.37;;
20988;SDS011;10653;47.052;15.410;2023-11-19T09:30:15;7.30;;;6.60;;
20988;SDS011;10653;47.052;15.410;2023-11-19T09:32:41;7.03;;;6.33;;
20988;SDS011;10653;47.052;15.410;2023-11-19T09:35:07;6.10;;;5.50;;
20988;SDS011;10653;47.052;15.410;2023-11-19T09:37:33;6.00;;;5.40;;
20988;SDS011;10653;47.052;15.410;2023-11-19T09:39:59;5.73;;;5.23;;
20988;SDS011;10653;47.052;15.410;2023-11-19T09:42:25;5.70;;;5.00;;
20988;SDS011;10653;47.052;15.410;2023-11-19T09:44:51;5.23;;;4.83;;
20988;SDS011;10653;47.052;15.410;2023-11-19T09:47:19;5.13;;;4.73;;
20988;SDS011;10653;47.052;15.410;2023-11-19T09:49:46;5.60;;;5.10;;
20988;SDS011;10653;47.052;15.410;2023-11-19T09:52:12;6.30;;;5.67;;
20988;SDS011;10653;47.052;15.410;2023-11-19T09:54:38;5.90;;;5.40;;
20988;SDS011;10653;47.052;15.410;2023-11-19T09:57:05;5.80;;;4.90;;
20988;SDS011;10653;47.052;15.410;2023-11-19T09:59:34;6.77;;;5.87;;
20988;SDS011;10653;47.052;15.410;2023-11-19T10:02:00;5.70;;;5.20;;
20988;SDS011;10653;47.052;15.410;2023-11-19T10:04:27;6.63;;;4.87;;
20988;SDS011;10653;47.052;15.410;2023-11-19T10:06:55;6.07;;;5.57;;
20988;SDS011;10653;47.052;15.410;2023-11-19T10:09:22;5.17;;;4.77;;
20988;SDS011;10653;47.052;15.410;2023-11-19T10:11:48;5.27;;;4.77;;
20988;SDS011;10653;47.052;15.410;2023-11-19T10:14:14;5.60;;;5.10;;
20988;SDS011;10653;47.052;15.410;2023-11-19T10:16:41;4.50;;;4.10;;
20988;SDS011;10653;47.052;15.410;2023-11-19T10:19:07;5.37;;;4.60;;
20988;SDS011;10653;47.052;15.410;2023-11-19T10:21:38;5.10;;;4.63;;
20988;SDS011;10653;47.052;15.410;2023-11-19T10:24:04;4.60;;;4.13;;
20988;SDS011;10653;47.052;15.410;2023-11-19T10:26:30;5.93;;;5.30;;
20988;SDS011;10653;47.052;15.410;2023-11-19T10:28:58;5.57;;;4.73;;
20988;SDS011;10653;47.052;15.410;2023-11-19T10:31:24;5.37;;;4.87;;
20988;SDS011;10653;47.052;15.410;2023-11-19T10:33:51;6.17;;;4.40;;
20988;SDS011;10653;47.052;15.410;2023-11-19T10:36:17;5.97;;;4.80;;
20988;SDS011;10653;47.052;15.410;2023-11-19T10:38:54;4.30;;;4.00;;
20988;SDS011;10653;47.052;15.410;2023-11-19T10:41:29;5.27;;;4.50;;
20988;SDS011;10653;47.052;15.410;2023-11-19T10:43:56;4.27;;;3.87;;
20988;SDS011;10653;47.052;15.410;2023-11-19T10:46:24;4.67;;;4.10;;
20988;SDS011;10653;47.052;15.410;2023-11-19T10:49:01;6.00;;;4.80;;
20988;SDS011;10653;47.052;15.410;2023-11-19T10:51:27;5.40;;;4.90;;
20988;SDS011;10653;47.052;15.410;2023-11-19T10:53:54;5.60;;;4.30;;
20988;SDS011;10653;47.052;15.410;2023-11-19T10:56:25;6.50;;;4.17;;
20988;SDS011;10653;47.052;15.410;2023-11-19T10:58:53;4.40;;;3.90;;
20988;SDS011;10653;47.052;15.410;2023-11-19T11:01:20;4.97;;;4.57;;
20988;SDS011;10653;47.052;15.410;2023-11-19T11:03:48;4.73;;;4.20;;
20988;SDS011;10653;47.052;15.410;2023-11-19T11:06:18;4.37;;;3.97;;
20988;SDS011;10653;47.052;15.410;2023-11-19T11:08:44;12.60;;;4.90;;
20988;SDS011;10653;47.052;15.410;2023-11-19T11:11:13;7.13;;;4.67;;
20988;SDS011;10653;47.052;15.410;2023-11-19T11:13:46;5.97;;;5.00;;
20988;SDS011;10653;47.052;15.410;2023-11-19T11:16:14;5.30;;;4.80;;
20988;SDS011;10653;47.052;15.410;2023-11-19T11:18:41;5.43;;;4.70;;
20988;SDS011;10653;47.052;15.410;2023-11-19T11:21:08;4.73;;;4.33;;
20988;SDS011;10653;47.052;15.410;2023-11-19T11:31:24;6.13;;;5.27;;
20988;SDS011;10653;47.052;15.410;2023-11-19T11:36:28;5.53;;;5.03;;
20988;SDS011;10653;47.052;15.410;2023-11-19T11:38:57;5.97;;;4.57;;
20988;SDS011;10653;47.052;15.410;2023-11-19T11:41:25;5.47;;;4.93;;
20988;SDS011;10653;47.052;15.410;2023-11-19T11:43:52;5.60;;;5.10;;
20988;SDS011;10653;47.052;15.410;2023-11-19T11:48:59;5.77;;;5.10;;
20988;SDS011;10653;47.052;15.410;2023-11-19T11:59:43;5.20;;;4.80;;
20988;SDS011;10653;47.052;15.410;2023-11-19T12:02:09;5.73;;;4.90;;
20988;SDS011;10653;47.052;15.410;2023-11-19T12:04:36;5.77;;;4.47;;
20988;SDS011;10653;47.052;15.410;2023-11-19T12:07:05;5.63;;;4.93;;
20988;SDS011;10653;47.052;15.410;2023-11-19T12:09:32;6.20;;;5.43;;
20988;SDS011;10653;47.052;15.410;2023-11-19T12:19:59;6.67;;;4.90;;
20988;SDS011;10653;47.052;15.410;2023-11-19T12:22:26;6.50;;;5.03;;
20988;SDS011;10653;47.052;15.410;2023-11-19T12:24:55;5.53;;;4.73;;
20988;SDS011;10653;47.052;15.410;2023-11-19T12:27:22;6.07;;;5.43;;
20988;SDS011;10653;47.052;15.410;2023-11-19T12:29:48;5.90;;;5.40;;
20988;SDS011;10653;47.052;15.410;2023-11-19T12:32:14;5.90;;;4.97;;
20988;SDS011;10653;47.052;15.410;2023-11-19T12:34:40;6.03;;;5.43;;
20988;SDS011;10653;47.052;15.410;2023-11-19T12:37:07;4.87;;;4.30;;
20988;SDS011;10653;47.052;15.410;2023-11-19T12:39:35;5.80;;;5.27;;
20988;SDS011;10653;47.052;15.410;2023-11-19T12:42:01;5.13;;;4.63;;
20988;SDS011;10653;47.052;15.410;2023-11-19T12:44:27;6.03;;;5.33;;
20988;SDS011;10653;47.052;15.410;2023-11-19T12:47:03;8.23;;;4.77;;
20988;SDS011;10653;47.052;15.410;2023-11-19T12:49:29;5.10;;;4.60;;
20988;SDS011;10653;47.052;15.410;2023-11-19T12:51:55;4.87;;;4.20;;
20988;SDS011;10653;47.052;15.410;2023-11-19T12:54:34;4.83;;;4.33;;
20988;SDS011;10653;47.052;15.410;2023-11-19T12:57:00;4.33;;;3.93;;
20988;SDS011;10653;47.052;15.410;2023-11-19T12:59:26;4.97;;;4.47;;
20988;SDS011;10653;47.052;15.410;2023-11-19T13:01:59;5.27;;;4.87;;
20988;SDS011;10653;47.052;15.410;2023-11-19T13:04:28;4.67;;;4.27;;
20988;SDS011;10653;47.052;15.410;2023-11-19T13:06:55;6.07;;;5.47;;
20988;SDS011;10653;47.052;15.410;2023-11-19T13:09:25;7.47;;;5.00;;
20988;SDS011;10653;47.052;15.410;2023-11-19T13:11:52;6.73;;;4.77;;
20988;SDS011;10653;47.052;15.410;2023-11-19T13:14:18;4.63;;;4.20;;
20988;SDS011;10653;47.052;15.410;2023-11-19T13:16:44;4.50;;;4.10;;
20988;SDS011;10653;47.052;15.410;2023-11-19T13:19:14;4.23;;;3.83;;
20988;SDS011;10653;47.052;15.410;2023-11-19T13:21:41;3.93;;;3.57;;
20988;SDS011;10653;47.052;15.410;2023-11-19T13:24:08;4.37;;;3.90;;
20988;SDS011;10653;47.052;15.410;2023-11-19T13:26:34;4.20;;;3.67;;
20988;SDS011;10653;47.052;15.410;2023-11-19T13:29:00;4.57;;;4.10;;
20988;SDS011;10653;47.052;15.410;2023-11-19T13:31:26;3.93;;;3.47;;
20988;SDS011;10653;47.052;15.410;2023-11-19T13:33:53;4.60;;;4.20;;
20988;SDS011;10653;47.052;15.410;2023-11-19T13:36:19;4.47;;;3.70;;
20988;SDS011;10653;47.052;15.410;2023-11-19T13:38:45;5.03;;;4.53;;
20988;SDS011;10653;47.052;15.410;2023-11-19T13:41:11;4.30;;;3.90;;
20988;SDS011;10653;47.052;15.410;2023-11-19T13:43:38;4.90;;;4.40;;
20988;SDS011;10653;47.052;15.410;2023-11-19T13:46:05;8.70;;;7.90;;
20988;SDS011;10653;47.052;15.410;2023-11-19T13:48:31;8.80;;;7.10;;
20988;SDS011;10653;47.052;15.410;2023-11-19T13:50:57;14.20;;;10.10;;
20988;SDS011;10653;47.052;15.410;2023-11-19T13:53:23;8.33;;;6.87;;
20988;SDS011;10653;47.052;15.410;2023-11-19T13:55:49;9.03;;;7.00;;
20988;SDS011;10653;47.052;15.410;2023-11-19T13:58:15;4.80;;;3.87;;
20988;SDS011;10653;47.052;15.410;2023-11-19T14:00:42;5.70;;;5.07;;
20988;SDS011;10653;47.052;15.410;2023-11-19T14:03:08;5.03;;;3.87;;
20988;SDS011;10653;47.052;15.410;2023-11-19T14:05:38;5.13;;;3.80;;
20988;SDS011;10653;47.052;15.410;2023-11-19T14:08:06;5.40;;;4.30;;
20988;SDS011;10653;47.052;15.410;2023-11-19T14:10:36;4.13;;;3.57;;
20988;SDS011;10653;47.052;15.410;2023-11-19T14:13:04;5.27;;;4.50;;
20988;SDS011;10653;47.052;15.410;2023-11-19T14:15:30;5.23;;;4.00;;
20988;SDS011;10653;47.052;15.410;2023-11-19T14:17:56;5.10;;;4.60;;
20988;SDS011;10653;47.052;15.410;2023-11-19T14:20:22;6.33;;;4.63;;
20988;SDS011;10653;47.052;15.410;2023-11-19T14:22:49;5.40;;;4.90;;
20988;SDS011;10653;47.052;15.410;2023-11-19T14:25:16;5.27;;;4.77;;
20988;SDS011;10653;47.052;15.410;2023-11-19T14:27:43;6.43;;;5.00;;
20988;SDS011;10653;47.052;15.410;2023-11-19T14:30:10;5.93;;;5.10;;
20988;SDS011;10653;47.052;15.410;2023-11-19T14:32:36;5.37;;;4.83;;
20988;SDS011;10653;47.052;15.410;2023-11-19T14:35:03;5.40;;;4.80;;
20988;SDS011;10653;47.052;15.410;2023-11-19T14:37:29;5.50;;;4.97;;
20988;SDS011;10653;47.052;15.410;2023-11-19T14:39:58;5.03;;;4.53;;
20988;SDS011;10653;47.052;15.410;2023-11-19T14:42:25;5.97;;;5.40;;
20988;SDS011;10653;47.052;15.410;2023-11-19T14:44:51;5.43;;;4.93;;
20988;SDS011;10653;47.052;15.410;2023-11-19T14:47:18;5.57;;;5.00;;
20988;SDS011;10653;47.052;15.410;2023-11-19T14:49:44;6.43;;;5.80;;
20988;SDS011;10653;47.052;15.410;2023-11-19T14:52:10;5.77;;;5.03;;
20988;SDS011;10653;47.052;15.410;2023-11-19T14:54:36;9.70;;;5.13;;
20988;SDS011;10653;47.052;15.410;2023-11-19T14:57:04;4.93;;;4.30;;
20988;SDS011;10653;47.052;15.410;2023-11-19T14:59:30;6.60;;;6.00;;